createdAt,value
2023-04-10T00:00:57.239Z,3.41
2023-04-10T00:03:27.656Z,3.54
2023-04-10T00:05:57.394Z,3.37
2023-04-10T00:08:26.598Z,3.42
2023-04-10T00:10:56.133Z,3.51
2023-04-10T00:13:24.391Z,3.80
2023-04-10T00:15:52.546Z,3.68
2023-04-10T00:18:20.778Z,3.58
2023-04-10T00:20:50.299Z,3.63
2023-04-10T00:23:18.462Z,3.53
2023-04-10T00:25:48.524Z,3.22
2023-04-10T00:28:17.295Z,3.18
2023-04-10T00:30:45.976Z,3.18
2023-04-10T00:33:14.194Z,3.25
2023-04-10T00:35:42.418Z,3.13
2023-04-10T00:38:12.016Z,3.03
2023-04-10T00:40:40.673Z,3.18
2023-04-10T00:43:08.864Z,3.18
2023-04-10T00:45:37.430Z,3.08
2023-04-10T00:48:06.401Z,3.08
2023-04-10T00:50:34.740Z,2.86
2023-04-10T00:53:04.194Z,2.91
2023-04-10T00:55:33.783Z,3.07
2023-04-10T00:58:02.054Z,2.99
2023-04-10T01:00:30.919Z,2.96
2023-04-10T01:03:00.735Z,3.13
2023-04-10T01:05:36.614Z,3.14
2023-04-10T01:08:14.033Z,3.15
2023-04-10T01:10:52.979Z,3.23
2023-04-10T01:13:26.896Z,3.10
2023-04-10T01:16:03.678Z,2.98
2023-04-10T01:18:39.405Z,3.04
2023-04-10T01:21:12.459Z,3.08
2023-04-10T01:24:05.207Z,2.92
2023-04-10T01:26:51.487Z,3.03
2023-04-10T01:29:23.147Z,3.03
2023-04-10T01:31:57.081Z,3.08
2023-04-10T01:34:34.902Z,2.91
2023-04-10T01:37:06.651Z,2.99
2023-04-10T01:39:39.334Z,3.02
2023-04-10T01:42:08.734Z,3.23
2023-04-10T01:44:44.014Z,3.11
2023-04-10T01:47:14.506Z,3.04
2023-04-10T01:49:45.389Z,3.09
2023-04-10T01:52:15.513Z,3.16
2023-04-10T01:54:49.441Z,3.01
2023-04-10T01:57:24.670Z,3.05
2023-04-10T01:59:57.729Z,3.04
2023-04-10T02:02:26.454Z,3.22
2023-04-10T02:04:54.746Z,3.27
2023-04-10T02:07:31.512Z,2.38
2023-04-10T02:10:06.057Z,3.10
2023-04-10T02:12:41.487Z,3.08
2023-04-10T02:15:13.188Z,3.00
2023-04-10T02:17:42.694Z,2.90
2023-04-10T02:20:12.463Z,2.91
2023-04-10T02:22:43.836Z,3.05
2023-04-10T02:25:12.696Z,2.92
2023-04-10T02:27:41.628Z,2.98
2023-04-10T02:30:12.461Z,2.75
2023-04-10T02:32:42.033Z,3.01
2023-04-10T02:35:10.647Z,3.06
2023-04-10T02:37:39.300Z,2.90
2023-04-10T02:40:10.662Z,3.15
2023-04-10T02:42:49.823Z,3.06
2023-04-10T02:45:19.688Z,3.04
2023-04-10T02:47:48.031Z,3.17
2023-04-10T02:50:18.049Z,3.11
2023-04-10T02:52:47.668Z,3.21
2023-04-10T02:55:16.029Z,3.06
2023-04-10T02:57:44.538Z,2.95
2023-04-10T03:00:14.435Z,2.94
2023-04-10T03:03:12.946Z,2.30
2023-04-10T03:05:49.485Z,3.01
2023-04-10T03:08:20.209Z,3.06
2023-04-10T03:10:49.498Z,3.11
2023-04-10T03:13:18.060Z,3.30
2023-04-10T03:15:46.500Z,3.13
2023-04-10T03:18:16.246Z,3.16
2023-04-10T03:20:46.203Z,3.13
2023-04-10T03:23:14.424Z,3.17
2023-04-10T03:25:43.418Z,3.14
2023-04-10T03:28:12.833Z,3.11
2023-04-10T03:30:41.048Z,3.09
2023-04-10T03:33:10.703Z,3.10
2023-04-10T03:35:40.485Z,3.06
2023-04-10T03:38:10.924Z,3.13
2023-04-10T03:40:39.317Z,3.23
2023-04-10T03:43:10.849Z,3.21
2023-04-10T03:45:40.145Z,3.19
2023-04-10T03:48:08.617Z,3.24
2023-04-10T03:50:45.491Z,2.58
2023-04-10T03:53:13.893Z,3.37
2023-04-10T03:55:42.223Z,3.35
2023-04-10T03:58:12.338Z,3.18
2023-04-10T04:00:41.516Z,3.07
2023-04-10T04:03:22.108Z,2.31
2023-04-10T04:05:52.447Z,3.18
2023-04-10T04:08:38.836Z,3.06
2023-04-10T04:11:39.367Z,3.16
2023-04-10T04:14:15.004Z,3.16
2023-04-10T04:16:50.137Z,2.98
2023-04-10T04:19:53.872Z,2.20
2023-04-10T04:22:46.782Z,2.96
2023-04-10T04:25:33.520Z,2.44
2023-04-10T04:28:20.647Z,3.04
2023-04-10T04:31:03.672Z,3.00
2023-04-10T04:34:10.518Z,3.02
2023-04-10T04:36:51.247Z,2.91
2023-04-10T04:39:39.774Z,2.98
2023-04-10T04:42:37.395Z,3.16
2023-04-10T04:45:17.176Z,3.03
2023-04-10T04:48:08.803Z,2.95
2023-04-10T04:50:56.944Z,2.93
2023-04-10T04:53:42.335Z,3.13
2023-04-10T04:56:30.721Z,3.16
2023-04-10T04:59:17.514Z,3.08
2023-04-10T05:02:11.684Z,3.13
2023-04-10T05:04:59.355Z,3.24
2023-04-10T05:07:42.378Z,3.25
2023-04-10T05:10:43.052Z,3.29
2023-04-10T05:13:44.694Z,3.33
2023-04-10T05:16:23.770Z,3.37
2023-04-10T05:18:58.241Z,3.38
2023-04-10T05:21:49.280Z,3.56
2023-04-10T05:24:23.562Z,3.59
2023-04-10T05:27:14.791Z,3.74
2023-04-10T05:29:57.295Z,4.00
2023-04-10T05:32:42.279Z,4.03
2023-04-10T05:35:47.100Z,4.28
2023-04-10T05:38:29.797Z,4.23
2023-04-10T05:41:12.562Z,4.36
2023-04-10T05:44:00.011Z,4.46
2023-04-10T05:46:37.739Z,4.62
2023-04-10T05:49:11.666Z,4.56
2023-04-10T05:52:03.074Z,4.76
2023-04-10T05:55:03.191Z,4.80
2023-04-10T05:57:54.464Z,5.09
2023-04-10T06:00:45.410Z,5.01
2023-04-10T06:04:04.510Z,5.18
2023-04-10T06:06:35.178Z,5.39
2023-04-10T06:09:03.504Z,5.54
2023-04-10T06:11:31.901Z,5.67
2023-04-10T06:14:02.084Z,4.73
2023-04-10T06:16:44.252Z,5.95
2023-04-10T06:19:13.907Z,6.11
2023-04-10T06:21:42.110Z,6.17
2023-04-10T06:24:12.692Z,6.20
2023-04-10T06:26:41.411Z,6.24
2023-04-10T06:29:11.504Z,6.40
2023-04-10T06:31:40.802Z,6.07
2023-04-10T06:34:10.297Z,6.64
2023-04-10T06:36:41.747Z,6.76
2023-04-10T06:39:10.409Z,6.82
2023-04-10T06:41:38.994Z,6.99
2023-04-10T06:44:16.478Z,7.15
2023-04-10T06:46:44.724Z,7.36
2023-04-10T06:49:12.973Z,7.42
2023-04-10T06:51:42.548Z,7.48
2023-04-10T06:54:10.928Z,7.77
2023-04-10T06:56:39.257Z,7.78
2023-04-10T06:59:07.512Z,7.93
2023-04-10T07:01:35.842Z,8.16
2023-04-10T07:04:04.214Z,8.18
2023-04-10T07:06:32.502Z,8.41
2023-04-10T07:09:02.093Z,8.39
2023-04-10T07:11:30.407Z,8.40
2023-04-10T07:13:58.980Z,8.47
2023-04-10T07:16:27.560Z,8.63
2023-04-10T07:18:56.456Z,8.73
2023-04-10T07:21:25.202Z,8.68
2023-04-10T07:23:53.458Z,8.78
2023-04-10T07:26:23.056Z,9.05
2023-04-10T07:28:51.346Z,9.13
2023-04-10T07:31:19.634Z,9.15
2023-04-10T07:33:48.377Z,9.31
2023-04-10T07:36:17.108Z,9.36
2023-04-10T07:38:45.385Z,9.35
2023-04-10T07:41:14.158Z,9.50
2023-04-10T07:43:44.150Z,9.58
2023-04-10T07:46:12.506Z,9.59
2023-04-10T07:48:40.956Z,9.76
2023-04-10T07:51:09.904Z,9.85
2023-04-10T07:53:38.378Z,9.78
2023-04-10T07:56:08.596Z,9.93
2023-04-10T07:58:37.367Z,9.93
2023-04-10T08:01:07.867Z,9.97
2023-04-10T08:03:40.863Z,9.96
2023-04-10T08:06:35.792Z,10.06
2023-04-10T08:09:04.311Z,10.08
2023-04-10T08:11:37.348Z,10.14
2023-04-10T08:14:07.268Z,10.18
2023-04-10T08:16:38.582Z,10.38
2023-04-10T08:19:07.115Z,10.47
2023-04-10T08:21:35.410Z,10.26
2023-04-10T08:24:05.459Z,10.49
2023-04-10T08:26:33.726Z,10.43
2023-04-10T08:29:02.217Z,10.58
2023-04-10T08:31:30.865Z,10.41
2023-04-10T08:34:00.784Z,10.38
2023-04-10T08:36:29.380Z,10.57
2023-04-10T08:38:57.649Z,10.57
2023-04-10T08:41:25.964Z,10.71
2023-04-10T08:43:54.605Z,10.83
2023-04-10T08:46:26.073Z,10.78
2023-04-10T08:49:02.299Z,11.12
2023-04-10T08:51:37.966Z,11.22
2023-04-10T08:54:09.428Z,11.21
2023-04-10T08:56:41.397Z,11.32
2023-04-10T08:59:10.118Z,11.35
2023-04-10T09:01:38.809Z,11.66
2023-04-10T09:04:08.738Z,11.43
2023-04-10T09:06:37.128Z,11.76
2023-04-10T09:09:07.148Z,11.75
2023-04-10T09:12:00.759Z,12.01
2023-04-10T09:14:32.484Z,12.17
2023-04-10T09:17:19.169Z,12.27
2023-04-10T09:19:52.463Z,12.20
2023-04-10T09:22:31.208Z,12.57
2023-04-10T09:25:01.429Z,12.27
2023-04-10T09:27:32.530Z,12.51
2023-04-10T09:30:01.039Z,12.84
2023-04-10T09:32:42.135Z,12.97
2023-04-10T09:35:13.644Z,12.87
2023-04-10T09:37:43.297Z,12.54
2023-04-10T09:40:23.002Z,13.09
2023-04-10T09:42:51.908Z,12.10
2023-04-10T09:45:22.600Z,12.88
2023-04-10T09:48:04.282Z,13.17
2023-04-10T09:50:41.779Z,13.24
2023-04-10T09:53:11.981Z,13.31
2023-04-10T09:55:40.630Z,13.47
2023-04-10T09:58:10.166Z,13.42
2023-04-10T10:00:42.967Z,13.78
2023-04-10T10:03:13.385Z,13.69
2023-04-10T10:05:46.285Z,13.71
2023-04-10T10:08:16.535Z,13.86
2023-04-10T10:10:49.851Z,13.86
2023-04-10T10:13:25.553Z,14.00
2023-04-10T10:16:02.711Z,13.93
2023-04-10T10:18:40.695Z,13.83
2023-04-10T10:21:11.480Z,13.86
2023-04-10T10:23:41.086Z,13.72
2023-04-10T10:26:11.459Z,14.13
2023-04-10T10:28:41.805Z,14.38
2023-04-10T10:31:11.721Z,14.12
2023-04-10T10:33:41.290Z,14.66
2023-04-10T10:36:13.951Z,14.71
2023-04-10T10:38:49.367Z,14.80
2023-04-10T10:41:24.969Z,14.82
2023-04-10T10:44:01.604Z,15.09
2023-04-10T10:46:39.452Z,14.25
2023-04-10T10:49:07.752Z,15.01
2023-04-10T10:51:48.203Z,14.94
2023-04-10T10:54:40.383Z,15.10
2023-04-10T10:57:47.551Z,15.30
2023-04-10T11:00:17.180Z,15.58
2023-04-10T11:02:45.917Z,15.54
2023-04-10T11:05:52.663Z,15.73
2023-04-10T11:08:45.865Z,16.03
2023-04-10T11:11:17.879Z,16.18
2023-04-10T11:14:18.423Z,16.12
2023-04-10T11:16:49.997Z,16.27
2023-04-10T11:19:22.696Z,16.30
2023-04-10T11:22:09.334Z,16.36
2023-04-10T11:25:10.530Z,16.33
2023-04-10T11:27:46.439Z,16.35
2023-04-10T11:30:32.230Z,16.59
2023-04-10T11:33:01.480Z,16.36
2023-04-10T11:35:31.521Z,16.69
2023-04-10T11:38:19.621Z,16.86
2023-04-10T11:41:06.969Z,17.00
2023-04-10T11:43:35.954Z,16.78
2023-04-10T11:46:08.081Z,16.88
2023-04-10T11:48:37.891Z,17.14
2023-04-10T11:51:14.324Z,17.25
2023-04-10T11:53:43.490Z,17.31
2023-04-10T11:56:21.845Z,17.31
2023-04-10T11:58:54.961Z,17.61
2023-04-10T12:01:25.523Z,17.85
2023-04-10T12:03:54.133Z,17.77
2023-04-10T12:06:23.535Z,17.69
2023-04-10T12:08:51.980Z,17.63
2023-04-10T12:11:23.076Z,17.75
2023-04-10T12:13:54.588Z,18.07
2023-04-10T12:16:23.508Z,18.32
2023-04-10T12:18:52.920Z,18.44
2023-04-10T12:21:21.793Z,18.38
2023-04-10T12:23:50.049Z,18.54
2023-04-10T12:26:22.346Z,18.63
2023-04-10T12:28:55.919Z,18.85
2023-04-10T12:31:31.316Z,18.55
2023-04-10T12:34:01.292Z,19.45
2023-04-10T12:36:32.269Z,19.12
2023-04-10T12:39:02.224Z,19.22
2023-04-10T12:41:34.365Z,19.18
2023-04-10T12:44:11.350Z,19.28
2023-04-10T12:46:41.011Z,19.39
2023-04-10T12:49:14.983Z,19.05
2023-04-10T12:51:47.755Z,19.02
2023-04-10T12:54:33.520Z,18.94
2023-04-10T12:57:04.784Z,19.26
2023-04-10T12:59:33.720Z,19.48
2023-04-10T13:02:02.494Z,19.18
2023-04-10T13:04:32.217Z,19.22
2023-04-10T13:07:01.200Z,19.45
2023-04-10T13:09:29.433Z,19.52
2023-04-10T13:11:57.929Z,19.64
2023-04-10T13:14:27.580Z,19.42
2023-04-10T13:16:55.910Z,19.78
2023-04-10T13:19:24.414Z,19.97
2023-04-10T13:21:52.643Z,20.10
2023-04-10T13:24:20.915Z,20.07
2023-04-10T13:26:49.167Z,20.03
2023-04-10T13:29:17.408Z,19.99
2023-04-10T13:31:47.040Z,19.90
2023-04-10T13:34:15.803Z,20.32
2023-04-10T13:36:44.529Z,20.19
2023-04-10T13:39:12.833Z,19.85
2023-04-10T13:41:41.131Z,19.78
2023-04-10T13:44:09.427Z,19.75
2023-04-10T13:46:37.669Z,19.81
2023-04-10T13:49:07.313Z,19.71
2023-04-10T13:51:35.542Z,19.67
2023-04-10T13:54:04.952Z,19.47
2023-04-10T13:56:33.202Z,19.29
2023-04-10T13:59:01.406Z,19.27
2023-04-10T14:01:29.626Z,19.26
2023-04-10T14:04:16.549Z,19.36
2023-04-10T14:06:44.775Z,19.19
2023-04-10T14:09:13.232Z,19.30
2023-04-10T14:11:41.638Z,19.48
2023-04-10T14:14:09.906Z,19.05
2023-04-10T14:16:38.116Z,19.62
2023-04-10T14:19:06.627Z,19.52
2023-04-10T14:21:37.309Z,19.83
2023-04-10T14:24:05.571Z,19.62
2023-04-10T14:26:33.799Z,19.36
2023-04-10T14:29:02.102Z,19.54
2023-04-10T14:31:30.448Z,19.60
2023-04-10T14:33:58.697Z,19.50
2023-04-10T14:36:27.853Z,19.22
2023-04-10T14:38:57.450Z,19.14
2023-04-10T14:41:25.667Z,19.02
2023-04-10T14:43:54.082Z,18.91
2023-04-10T14:46:22.545Z,18.83
2023-04-10T14:48:50.824Z,18.68
2023-04-10T14:51:19.746Z,18.62
2023-04-10T14:53:48.080Z,18.00
2023-04-10T14:56:17.653Z,18.42
2023-04-10T14:58:47.460Z,18.25
2023-04-10T15:01:17.453Z,18.22
2023-04-10T15:03:49.329Z,18.21
2023-04-10T15:06:17.736Z,18.56
2023-04-10T15:08:46.009Z,18.59
2023-04-10T15:11:14.207Z,18.75
2023-04-10T15:13:43.804Z,18.98
2023-04-10T15:16:12.473Z,19.24
2023-04-10T15:18:40.709Z,18.90
2023-04-10T15:21:09.370Z,18.92
2023-04-10T15:23:37.626Z,18.97
2023-04-10T15:26:06.171Z,19.01
2023-04-10T15:28:37.830Z,18.81
2023-04-10T15:31:08.252Z,18.90
2023-04-10T15:33:37.999Z,18.41
2023-04-10T15:36:08.537Z,18.73
2023-04-10T15:38:37.751Z,18.42
2023-04-10T15:41:10.976Z,18.02
2023-04-10T15:43:39.574Z,18.15
2023-04-10T15:46:10.484Z,17.85
2023-04-10T15:48:38.932Z,17.66
2023-04-10T15:51:08.229Z,17.54
2023-04-10T15:53:36.725Z,17.58
2023-04-10T15:56:06.294Z,17.70
2023-04-10T15:58:35.018Z,17.69
2023-04-10T16:01:03.259Z,17.66
2023-04-10T16:03:33.218Z,17.48
2023-04-10T16:06:02.073Z,17.30
2023-04-10T16:08:30.424Z,17.11
2023-04-10T16:10:58.686Z,17.09
2023-04-10T16:13:31.506Z,17.11
2023-04-10T16:15:59.835Z,16.93
2023-04-10T16:18:28.482Z,17.02
2023-04-10T16:20:58.267Z,16.90
2023-04-10T16:23:26.572Z,16.81
2023-04-10T16:25:54.809Z,16.74
2023-04-10T16:28:23.380Z,16.78
2023-04-10T16:30:51.611Z,15.10
2023-04-10T16:33:19.906Z,16.43
2023-04-10T16:35:48.539Z,16.13
2023-04-10T16:38:18.255Z,16.05
2023-04-10T16:40:46.567Z,16.07
2023-04-10T16:43:14.828Z,15.96
2023-04-10T16:45:43.077Z,15.81
2023-04-10T16:48:11.410Z,15.73
2023-04-10T16:50:39.723Z,15.85
2023-04-10T16:53:08.014Z,15.74
2023-04-10T16:55:37.626Z,15.72
2023-04-10T16:58:05.929Z,15.71
2023-04-10T17:00:35.358Z,15.76
2023-04-10T17:03:04.032Z,15.76
2023-04-10T17:05:36.361Z,15.28
2023-04-10T17:08:05.631Z,15.64
2023-04-10T17:10:34.024Z,16.30
2023-04-10T17:13:03.630Z,15.53
2023-04-10T17:15:31.894Z,15.44
2023-04-10T17:18:00.228Z,15.34
2023-04-10T17:20:29.046Z,15.40
2023-04-10T17:22:57.324Z,15.10
2023-04-10T17:25:25.651Z,15.28
2023-04-10T17:27:53.972Z,15.13
2023-04-10T17:30:23.557Z,15.05
2023-04-10T17:32:52.010Z,14.99
2023-04-10T17:35:20.387Z,15.01
2023-04-10T17:37:48.720Z,14.95
2023-04-10T17:40:16.966Z,14.96
2023-04-10T17:42:45.309Z,14.39
2023-04-10T17:45:14.008Z,14.82
2023-04-10T17:47:43.679Z,14.71
2023-04-10T17:50:12.367Z,14.49
2023-04-10T17:52:40.638Z,14.49
2023-04-10T17:55:10.192Z,14.28
2023-04-10T17:57:38.429Z,14.30
2023-04-10T18:00:09.957Z,14.42
2023-04-10T18:02:38.500Z,14.11
2023-04-10T18:05:11.706Z,14.17
2023-04-10T18:07:40.242Z,14.13
2023-04-10T18:10:11.558Z,13.96
2023-04-10T18:12:41.700Z,14.03
2023-04-10T18:15:10.857Z,13.92
2023-04-10T18:17:39.516Z,13.89
2023-04-10T18:20:10.836Z,13.91
2023-04-10T18:22:39.076Z,13.78
2023-04-10T18:25:09.527Z,13.79
2023-04-10T18:27:37.773Z,13.70
2023-04-10T18:30:10.436Z,13.76
2023-04-10T18:32:41.014Z,13.59
2023-04-10T18:35:11.494Z,13.60
2023-04-10T18:37:40.748Z,13.51
2023-04-10T18:40:16.326Z,13.40
2023-04-10T18:42:46.013Z,13.33
2023-04-10T18:45:14.318Z,13.20
2023-04-10T18:47:42.494Z,13.35
2023-04-10T18:50:12.570Z,12.33
2023-04-10T18:52:40.835Z,13.08
2023-04-10T18:55:10.015Z,13.01
2023-04-10T18:57:38.262Z,13.09
2023-04-10T19:00:08.326Z,13.11
2023-04-10T19:02:36.796Z,13.01
2023-04-10T19:05:05.636Z,13.01
2023-04-10T19:07:35.265Z,12.94
2023-04-10T19:10:03.528Z,13.02
2023-04-10T19:12:31.832Z,13.07
2023-04-10T19:15:00.049Z,13.01
2023-04-10T19:17:28.519Z,12.97
2023-04-10T19:19:58.032Z,12.95
2023-04-10T19:22:26.310Z,12.94
2023-04-10T19:24:55.900Z,12.80
2023-04-10T19:27:24.115Z,12.85
2023-04-10T19:29:52.428Z,12.76
2023-04-10T19:32:20.726Z,12.77
2023-04-10T19:34:51.386Z,12.76
2023-04-10T19:37:21.163Z,12.67
2023-04-10T19:39:49.444Z,12.73
2023-04-10T19:42:18.986Z,12.69
2023-04-10T19:44:47.244Z,12.50
2023-04-10T19:47:15.460Z,12.52
2023-04-10T19:49:43.672Z,12.32
2023-04-10T19:52:11.907Z,12.39
2023-04-10T19:54:40.224Z,12.31
2023-04-10T19:57:08.438Z,12.38
2023-04-10T19:59:38.078Z,12.37
2023-04-10T20:02:12.304Z,12.38
2023-04-10T20:04:40.698Z,12.31
2023-04-10T20:07:12.385Z,12.30
2023-04-10T20:09:40.917Z,12.36
2023-04-10T20:12:09.747Z,12.29
2023-04-10T20:14:39.496Z,12.21
2023-04-10T20:17:07.768Z,12.18
2023-04-10T20:19:36.022Z,12.28
2023-04-10T20:22:04.464Z,12.17
2023-04-10T20:24:33.172Z,12.23
2023-04-10T20:27:01.587Z,12.09
2023-04-10T20:29:30.067Z,12.12
2023-04-10T20:31:59.831Z,12.08
2023-04-10T20:34:28.143Z,12.04
2023-04-10T20:36:56.387Z,12.03
2023-04-10T20:39:24.777Z,12.01
2023-04-10T20:41:53.556Z,11.98
2023-04-10T20:44:21.824Z,12.01
2023-04-10T20:46:50.357Z,11.89
2023-04-10T20:49:20.080Z,11.96
2023-04-10T20:51:48.764Z,11.90
2023-04-10T20:54:18.999Z,11.92
2023-04-10T20:56:47.292Z,11.93
2023-04-10T20:59:15.545Z,11.83
2023-04-10T21:01:43.934Z,11.76
2023-04-10T21:04:12.274Z,11.87
2023-04-10T21:06:41.915Z,11.83
2023-04-10T21:09:10.204Z,11.79
2023-04-10T21:11:38.439Z,11.90
2023-04-10T21:14:06.701Z,11.81
2023-04-10T21:16:37.504Z,11.76
2023-04-10T21:19:05.828Z,11.67
2023-04-10T21:21:34.092Z,11.75
2023-04-10T21:24:03.819Z,11.65
2023-04-10T21:26:32.098Z,11.58
2023-04-10T21:29:00.355Z,11.61
2023-04-10T21:31:28.748Z,11.65
2023-04-10T21:33:57.086Z,11.68
2023-04-10T21:36:26.412Z,11.55
2023-04-10T21:38:54.895Z,11.56
2023-04-10T21:41:24.647Z,11.59
2023-04-10T21:43:56.443Z,11.58
2023-04-10T21:46:24.850Z,11.47
2023-04-10T21:48:53.258Z,11.36
2023-04-10T21:51:21.695Z,11.39
2023-04-10T21:53:49.955Z,11.38
2023-04-10T21:56:18.200Z,11.37
2023-04-10T21:58:47.835Z,11.43
2023-04-10T22:01:16.269Z,11.41
2023-04-10T22:03:44.869Z,11.36
2023-04-10T22:06:13.509Z,11.43
2023-04-10T22:08:42.138Z,11.36
2023-04-10T22:11:10.370Z,11.35
2023-04-10T22:13:38.626Z,11.31
2023-04-10T22:16:08.748Z,11.45
2023-04-10T22:18:37.037Z,11.12
2023-04-10T22:21:05.813Z,11.37
2023-04-10T22:23:34.100Z,11.40
2023-04-10T22:26:02.422Z,11.34
2023-04-10T22:28:30.763Z,11.37
2023-04-10T22:30:59.751Z,11.43
2023-04-10T22:33:29.397Z,11.23
2023-04-10T22:35:57.642Z,11.32
2023-04-10T22:38:25.961Z,11.18
2023-04-10T22:40:55.877Z,11.28
2023-04-10T22:43:24.130Z,11.19
2023-04-10T22:45:52.574Z,11.15
2023-04-10T22:48:20.954Z,11.33
2023-04-10T22:50:50.557Z,11.16
2023-04-10T22:53:18.813Z,11.26
2023-04-10T22:55:47.032Z,10.94
2023-04-10T22:58:15.317Z,11.19
2023-04-10T23:00:43.511Z,10.99
2023-04-10T23:03:11.802Z,10.98
2023-04-10T23:05:40.124Z,10.97
2023-04-10T23:08:09.701Z,11.16
2023-04-10T23:10:37.906Z,11.16
2023-04-10T23:13:06.863Z,11.33
2023-04-10T23:15:35.433Z,10.56
2023-04-10T23:18:03.718Z,11.34
2023-04-10T23:20:31.957Z,11.30
2023-04-10T23:23:00.149Z,11.34
2023-04-10T23:25:29.825Z,11.38
2023-04-10T23:27:59.857Z,11.45
2023-04-10T23:30:29.099Z,11.50
2023-04-10T23:32:57.752Z,11.59
2023-04-10T23:35:27.672Z,11.55
2023-04-10T23:37:56.026Z,11.67
2023-04-10T23:40:24.245Z,11.64
2023-04-10T23:42:53.769Z,11.88
2023-04-10T23:45:22.008Z,11.82
2023-04-10T23:47:51.053Z,11.74
2023-04-10T23:50:19.721Z,11.77
2023-04-10T23:52:50.305Z,11.70
2023-04-10T23:55:19.059Z,11.62
2023-04-10T23:57:47.283Z,11.63
